Time;durP1;ratioP1;P1;durP2;ratioP2;P2;SDS_P1;SDS_P2;PMS_P1;PMS_P2;Temp;Humidity;BMP_temperature;BMP_pressure;BME280_temperature;BME280_humidity;BME280_pressure;Samples;Min_cycle;Max_cycle;Signal;HPM_P1;HPM_P2
2022/08/17 00:02:19;;;;;;;11.43;8.98;;;;;;;19.96;62.84;100370.19;5041522;28;20103;-80
2022/08/17 00:04:53;;;;;;;9.90;7.88;;;;;;;19.92;62.84;100362.31;5044074;28;20061;-79
2022/08/17 00:07:22;;;;;;;13.25;8.65;;;;;;;19.84;62.94;100351.94;5044188;28;20049;-80
2022/08/17 00:09:49;;;;;;;11.38;7.72;;;;;;;19.86;63.18;100367.81;5041649;28;20057;-80
2022/08/17 00:12:16;;;;;;;10.98;8.23;;;;;;;19.65;63.25;100322.38;5042316;28;20068;-79
2022/08/17 00:15:04;;;;;;;11.60;7.70;;;;;;;19.81;62.98;100355.56;5041159;28;20509;-78
2022/08/17 00:17:36;;;;;;;12.88;8.52;;;;;;;19.81;63.17;100354.66;5040901;28;20200;-79
2022/08/17 00:20:04;;;;;;;12.77;7.97;;;;;;;19.74;63.30;100356.59;5038432;28;20057;-81
2022/08/17 00:22:31;;;;;;;11.27;8.18;;;;;;;19.78;63.62;100368.00;5036135;28;20058;-79
2022/08/17 00:25:09;;;;;;;12.93;8.23;;;;;;;19.68;63.33;100334.66;5034398;28;20077;-78
2022/08/17 00:27:36;;;;;;;11.95;7.30;;;;;;;19.71;63.59;100362.00;5034410;28;20045;-82
2022/08/17 00:30:06;;;;;;;10.43;7.50;;;;;;;19.74;63.38;100367.22;5033499;28;20418;-81
2022/08/17 00:32:42;;;;;;;10.30;7.50;;;;;;;19.73;63.63;100362.84;5033367;28;20088;-79
2022/08/17 00:35:29;;;;;;;10.60;8.02;;;;;;;19.69;63.73;100363.78;5033513;28;20052;-80
2022/08/17 00:37:56;;;;;;;12.68;7.95;;;;;;;19.67;63.73;100351.50;5032270;28;20060;-83
2022/08/17 00:40:23;;;;;;;10.82;7.45;;;;;;;19.72;63.61;100361.06;5032595;28;20139;-80
2022/08/17 00:42:52;;;;;;;9.30;7.00;;;;;;;19.72;63.52;100354.91;5032209;28;20052;-82
2022/08/17 00:45:19;;;;;;;10.07;7.57;;;;;;;19.64;63.47;100342.72;5044301;28;20099;-82
2022/08/17 00:47:48;;;;;;;10.60;7.38;;;;;;;19.67;63.65;100351.50;5033238;28;20061;-82
2022/08/17 00:50:17;;;;;;;10.43;7.57;;;;;;;19.44;63.56;100315.84;5033002;28;20087;-79
2022/08/17 00:52:53;;;;;;;10.05;7.43;;;;;;;19.56;63.76;100349.97;5032033;28;20053;-78
2022/08/17 00:55:23;;;;;;;10.73;7.35;;;;;;;19.43;63.79;100327.38;5032947;28;20057;-80
2022/08/17 00:57:55;;;;;;;15.13;7.55;;;;;;;19.53;63.96;100343.88;5033096;28;20056;-80
2022/08/17 01:00:31;;;;;;;12.27;7.90;;;;;;;19.54;64.28;100338.56;5033081;28;20137;-78
2022/08/17 01:03:05;;;;;;;10.55;7.57;;;;;;;19.49;64.27;100343.13;5033116;28;20077;-79
2022/08/17 01:05:37;;;;;;;10.07;7.30;;;;;;;19.26;64.27;100290.72;5032935;28;20061;-81
2022/08/17 01:08:12;;;;;;;10.38;7.05;;;;;;;19.42;64.25;100334.47;5033069;28;20057;-79
2022/08/17 01:10:43;;;;;;;9.65;7.00;;;;;;;19.34;64.29;100311.72;5033409;28;20057;-78
2022/08/17 01:13:40;;;;;;;10.25;7.13;;;;;;;19.42;64.36;100347.69;5033001;28;20065;-78
2022/08/17 01:16:28;;;;;;;10.57;7.47;;;;;;;19.33;64.59;100337.31;5033374;28;20060;-80
2022/08/17 01:19:04;;;;;;;12.57;8.13;;;;;;;19.36;64.61;100334.59;5033194;28;20046;-78
2022/08/17 01:21:46;;;;;;;10.15;6.80;;;;;;;19.34;64.52;100339.06;5031631;28;20525;-79
2022/08/17 01:24:14;;;;;;;11.45;7.32;;;;;;;19.27;64.93;100337.47;5031281;28;20560;-76
2022/08/17 01:26:43;;;;;;;11.30;7.13;;;;;;;19.33;64.79;100341.75;5032796;28;20050;-78
2022/08/17 01:29:11;;;;;;;12.18;7.53;;;;;;;19.33;64.66;100355.00;5032624;28;20168;-79
2022/08/17 01:31:44;;;;;;;10.77;7.40;;;;;;;19.32;64.60;100342.69;5032610;28;20061;-79
2022/08/17 01:34:14;;;;;;;9.73;6.85;;;;;;;19.28;64.43;100328.63;5032786;28;20576;-77
2022/08/17 01:36:44;;;;;;;13.80;7.15;;;;;;;19.30;64.31;100331.25;5032941;28;20092;-79
2022/08/17 01:39:22;;;;;;;11.80;7.53;;;;;;;19.36;64.36;100337.25;5033013;28;20056;-80
2022/08/17 01:41:52;;;;;;;8.48;6.70;;;;;;;19.29;64.38;100325.06;5032927;28;20053;-81
2022/08/17 01:44:22;;;;;;;10.73;6.93;;;;;;;19.34;64.31;100340.88;5032776;28;20100;-82
2022/08/17 01:46:49;;;;;;;8.10;6.20;;;;;;;19.31;64.36;100354.16;5032533;28;20445;-80
2022/08/17 01:49:18;;;;;;;9.38;6.72;;;;;;;19.06;64.35;100295.63;5031537;28;20564;-81
2022/08/17 01:51:45;;;;;;;10.60;6.95;;;;;;;19.20;64.27;100330.59;5034215;28;20046;-80
2022/08/17 01:54:15;;;;;;;10.52;7.28;;;;;;;19.19;64.46;100350.91;5036480;28;20052;-80
2022/08/17 01:56:46;;;;;;;9.50;6.97;;;;;;;18.92;64.62;100294.19;5036460;28;20054;-79
2022/08/17 01:59:15;;;;;;;11.27;7.03;;;;;;;19.13;64.51;100334.31;5036407;28;20050;-78
2022/08/17 02:01:42;;;;;;;15.23;7.70;;;;;;;19.11;64.90;100339.63;5036325;28;20053;-79
2022/08/17 02:04:11;;;;;;;10.90;7.88;;;;;;;18.99;65.09;100338.16;5036703;28;20053;-81
2022/08/17 02:06:42;;;;;;;8.98;6.95;;;;;;;19.00;64.96;100345.19;5036086;28;20045;-79
2022/08/17 02:09:22;;;;;;;10.77;7.43;;;;;;;18.92;65.37;100344.50;5035386;28;20049;-82
2022/08/17 02:11:54;;;;;;;9.18;6.90;;;;;;;18.80;65.35;100327.13;5036723;28;20072;-80
2022/08/17 02:14:24;;;;;;;11.57;7.20;;;;;;;18.83;65.49;100344.72;5036102;28;20482;-81
2022/08/17 02:16:51;;;;;;;11.02;7.72;;;;;;;18.71;65.47;100326.44;5037104;28;20049;-81
2022/08/17 02:19:18;;;;;;;10.55;7.35;;;;;;;18.85;65.55;100352.63;5036102;28;20049;-81
2022/08/17 02:21:48;;;;;;;10.85;7.30;;;;;;;18.87;64.98;100361.41;5036099;28;20139;-81
2022/08/17 02:24:24;;;;;;;11.35;6.85;;;;;;;18.81;65.12;100334.16;5036194;28;20068;-79
2022/08/17 02:27:11;;;;;;;10.30;7.20;;;;;;;18.89;65.10;100351.66;5034864;28;20061;-80
2022/08/17 02:29:38;;;;;;;9.57;7.90;;;;;;;18.83;65.23;100348.22;5034611;28;20080;-80
2022/08/17 02:32:14;;;;;;;10.63;7.82;;;;;;;18.54;65.75;100305.63;5035884;28;20057;-80
2022/08/17 02:34:51;;;;;;;12.57;8.10;;;;;;;18.68;65.75;100343.25;5036400;28;20061;-79
2022/08/17 02:37:18;;;;;;;13.05;7.43;;;;;;;18.75;65.71;100354.56;5036380;28;20056;-79
2022/08/17 02:39:45;;;;;;;16.92;8.18;;;;;;;18.67;66.12;100335.34;5036312;28;20077;-82
2022/08/17 02:42:13;;;;;;;11.48;8.32;;;;;;;18.72;65.93;100349.34;5035982;28;20049;-80
2022/08/17 02:44:41;;;;;;;11.70;8.18;;;;;;;18.65;65.82;100361.84;5035602;28;20145;-79
2022/08/17 02:47:09;;;;;;;12.60;8.20;;;;;;;18.54;65.86;100317.13;5035697;28;20518;-80
2022/08/17 02:49:36;;;;;;;11.65;7.03;;;;;;;18.71;65.82;100347.59;5036942;28;20053;-82
2022/08/17 02:52:06;;;;;;;11.50;8.25;;;;;;;18.82;65.69;100350.91;5035868;28;20060;-79
2022/08/17 02:54:34;;;;;;;11.97;7.73;;;;;;;18.76;65.69;100330.72;5035438;28;20053;-81
2022/08/17 02:57:06;;;;;;;10.35;8.07;;;;;;;18.92;65.16;100346.28;5035612;28;20296;-79
2022/08/17 02:59:34;;;;;;;15.35;8.27;;;;;;;18.96;64.85;100342.66;5035471;28;20056;-81
2022/08/17 03:02:10;;;;;;;10.98;8.52;;;;;;;19.10;64.34;100332.63;5035646;28;20057;-79
2022/08/17 03:04:37;;;;;;;13.85;8.20;;;;;;;19.24;64.05;100337.56;5034917;28;20050;-80
2022/08/17 03:07:05;;;;;;;11.38;8.45;;;;;;;19.23;63.78;100331.41;5035557;28;20091;-81
2022/08/17 03:09:32;;;;;;;14.45;7.68;;;;;;;19.20;63.56;100309.41;5034607;28;20080;-79
2022/08/17 03:12:07;;;;;;;13.30;8.30;;;;;;;19.48;63.07;100341.34;5044168;28;20057;-77
2022/08/17 03:14:42;;;;;;;12.35;8.18;;;;;;;19.69;62.67;100333.78;5044063;28;20050;-79
2022/08/17 03:17:10;;;;;;;13.50;8.43;;;;;;;20.61;60.13;100340.03;5042215;28;20160;-79
2022/08/17 03:19:43;;;;;;;10.75;8.25;;;;;;;21.93;55.83;100337.47;5041962;28;20053;-81
2022/08/17 03:22:10;;;;;;;14.50;7.97;;;;;;;22.84;52.94;100299.44;5039827;28;20072;-79
2022/08/17 03:24:58;;;;;;;14.63;7.50;;;;;;;23.97;50.34;100328.47;5042354;28;20053;-80
2022/08/17 03:27:25;;;;;;;9.88;7.10;;;;;;;24.41;48.91;100327.38;5035397;28;20053;-79
2022/08/17 03:29:52;;;;;;;12.90;7.70;;;;;;;24.90;47.49;100315.22;5034047;28;20049;-78
2022/08/17 03:32:19;;;;;;;10.00;7.65;;;;;;;25.28;46.08;100300.94;5035162;28;20069;-80
2022/08/17 03:34:47;;;;;;;11.57;7.97;;;;;;;25.81;45.11;100332.06;5034686;28;20045;-80
2022/08/17 03:37:14;;;;;;;12.38;7.43;;;;;;;26.05;43.92;100294.25;5035110;28;20119;-80
2022/08/17 03:39:41;;;;;;;12.35;7.60;;;;;;;26.40;43.48;100307.56;5043075;28;20121;-77
2022/08/17 03:42:15;;;;;;;10.63;7.38;;;;;;;26.75;42.57;100332.41;5055265;28;20065;-79
2022/08/17 03:45:00;;;;;;;11.65;8.25;;;;;;;27.20;41.81;100317.28;5047698;28;20076;-80
2022/08/17 03:58:49;;;;;;;12.75;9.27;;;;;;;24.78;46.63;100336.34;5034797;28;20049;-81
2022/08/17 04:01:16;;;;;;;15.70;9.23;;;;;;;24.40;47.99;100334.50;5033982;28;20057;-80
2022/08/17 04:03:43;;;;;;;12.43;8.27;;;;;;;24.20;48.33;100322.09;5033874;28;20057;-82
2022/08/17 04:06:10;;;;;;;12.38;8.93;;;;;;;24.20;48.31;100334.56;5034061;28;20498;-81
2022/08/17 04:08:37;;;;;;;12.18;8.65;;;;;;;24.08;48.58;100327.97;5034012;28;20061;-82
2022/08/17 04:11:04;;;;;;;12.98;9.55;;;;;;;23.95;49.04;100334.81;5032620;28;20120;-82
2022/08/17 04:13:32;;;;;;;12.70;9.35;;;;;;;23.75;48.85;100309.84;5033876;28;20058;-80
2022/08/17 04:15:59;;;;;;;15.07;9.73;;;;;;;23.80;49.23;100317.69;5034224;28;20103;-81
2022/08/17 04:18:25;;;;;;;10.85;9.30;;;;;;;23.47;49.23;100281.72;5032486;28;20513;-80
2022/08/17 04:20:53;;;;;;;14.73;9.20;;;;;;;23.60;49.71;100306.06;5033865;28;20057;-81
2022/08/17 04:23:20;;;;;;;10.60;9.48;;;;;;;23.97;49.08;100330.28;5032752;28;20058;-78
2022/08/17 04:25:49;;;;;;;16.73;10.00;;;;;;;23.96;48.56;100326.72;5033429;28;20061;-78
2022/08/17 04:28:17;;;;;;;14.75;9.30;;;;;;;24.07;49.05;100327.13;5034203;28;20049;-80
2022/08/17 04:30:46;;;;;;;16.45;9.68;;;;;;;24.25;48.59;100320.06;5034596;28;20099;-82
2022/08/17 04:33:15;;;;;;;13.52;9.20;;;;;;;24.20;48.34;100322.09;5035418;28;20057;-78
2022/08/17 04:35:46;;;;;;;15.52;11.07;;;;;;;24.22;48.41;100322.91;5032500;28;20099;-78
2022/08/17 04:38:16;;;;;;;14.15;9.27;;;;;;;24.37;48.05;100317.75;5033344;28;20468;-77
2022/08/17 04:43:32;;;;;;;13.35;10.20;;;;;;;24.46;47.79;100325.38;5033565;28;20469;-79
2022/08/17 04:46:02;;;;;;;16.90;10.70;;;;;;;24.09;48.28;100290.56;5032315;28;20492;-78
2022/08/17 04:48:41;;;;;;;14.50;10.68;;;;;;;24.29;48.64;100308.31;5033488;28;20510;-79
2022/08/17 04:51:16;;;;;;;16.15;11.75;;;;;;;24.29;48.18;100299.44;5039411;28;20429;-80
2022/08/17 04:53:46;;;;;;;16.98;12.35;;;;;;;24.42;47.98;100316.63;5034985;28;20061;-78
2022/08/17 04:56:23;;;;;;;18.55;12.98;;;;;;;24.71;47.10;100317.91;5037635;28;20060;-81
2022/08/17 04:58:54;;;;;;;22.08;13.35;;;;;;;24.76;46.40;100287.47;5038422;28;20049;-79
2022/08/17 05:01:23;;;;;;;19.77;13.30;;;;;;;24.84;46.72;100293.28;5034312;28;20053;-80
2022/08/17 05:03:52;;;;;;;18.95;13.10;;;;;;;24.94;46.50;100307.94;5034225;28;20053;-80
2022/08/17 05:06:19;;;;;;;19.83;14.50;;;;;;;25.01;46.40;100295.13;5033276;28;20103;-79
2022/08/17 05:08:47;;;;;;;22.80;12.93;;;;;;;25.17;45.94;100295.22;5032777;28;20123;-79
2022/08/17 05:11:14;;;;;;;19.95;14.35;;;;;;;25.41;45.54;100301.19;5031689;28;20375;-78
2022/08/17 05:13:41;;;;;;;22.38;14.13;;;;;;;25.39;45.40;100295.06;5032133;28;20417;-79
2022/08/17 05:16:09;;;;;;;21.23;15.63;;;;;;;25.35;45.08;100291.66;5032382;28;20147;-76
2022/08/17 05:18:37;;;;;;;22.27;15.45;;;;;;;25.29;45.07;100298.19;5033010;28;20054;-79
2022/08/17 05:21:05;;;;;;;21.58;17.20;;;;;;;25.41;44.84;100295.84;5033101;28;20148;-77
2022/08/17 05:23:34;;;;;;;24.17;17.35;;;;;;;25.44;45.17;100298.34;5032758;28;20103;-78
2022/08/17 05:26:15;;;;;;;24.60;16.33;;;;;;;25.57;44.51;100285.22;5034027;28;20057;-81
2022/08/17 05:28:55;;;;;;;23.13;18.17;;;;;;;25.43;44.29;100268.06;5038491;28;20505;-79
2022/08/17 05:31:26;;;;;;;25.63;17.63;;;;;;;25.64;44.30;100281.25;5037334;28;20053;-82
2022/08/17 05:33:53;;;;;;;24.10;18.58;;;;;;;25.78;44.11;100292.09;5035694;28;20057;-83
2022/08/17 05:36:20;;;;;;;23.85;17.95;;;;;;;25.90;43.87;100282.59;5036183;28;20099;-81
2022/08/17 05:39:08;;;;;;;25.05;18.92;;;;;;;25.90;43.77;100280.78;5034476;28;20057;-81
2022/08/17 05:41:41;;;;;;;23.08;18.65;;;;;;;25.90;43.99;100287.97;5036552;28;20057;-82
2022/08/17 05:44:08;;;;;;;25.60;18.48;;;;;;;25.90;43.61;100282.59;5035812;28;20111;-81
2022/08/17 05:46:40;;;;;;;22.67;18.30;;;;;;;25.73;44.06;100272.75;5036057;28;20107;-82
2022/08/17 05:49:07;;;;;;;27.00;18.92;;;;;;;25.91;43.46;100270.94;5035975;28;20057;-80
2022/08/17 05:52:08;;;;;;;25.75;18.33;;;;;;;26.04;42.79;100282.69;5035299;28;20414;-79
2022/08/17 05:55:08;;;;;;;23.88;18.20;;;;;;;26.15;43.15;100287.47;5035924;28;20084;-78
2022/08/17 05:57:48;;;;;;;23.77;17.80;;;;;;;26.22;42.66;100278.19;5033018;28;20690;-77
2022/08/17 06:00:38;;;;;;;21.38;15.55;;;;;;;26.12;42.54;100287.66;5035452;28;20049;-80
2022/08/17 06:03:31;;;;;;;18.00;14.73;;;;;;;25.72;42.94;100244.28;5035936;28;20059;-77
2022/08/17 06:06:15;;;;;;;22.83;14.50;;;;;;;25.87;42.88;100275.53;5035011;28;20498;-79
2022/08/17 06:08:52;;;;;;;23.90;14.63;;;;;;;26.00;43.08;100281.13;5034201;28;20049;-80
2022/08/17 06:11:37;;;;;;;19.90;13.80;;;;;;;26.17;42.81;100279.38;5036391;28;20084;-81
2022/08/17 06:14:24;;;;;;;18.73;13.00;;;;;;;26.36;42.44;100277.41;5036545;28;20061;-80
2022/08/17 06:16:59;;;;;;;22.05;12.48;;;;;;;26.40;41.96;100267.38;5036818;28;20053;-82
2022/08/17 06:19:32;;;;;;;16.85;11.82;;;;;;;26.41;41.74;100271.78;5034890;28;20049;-85
2022/08/17 06:22:01;;;;;;;15.23;11.00;;;;;;;26.57;42.04;100271.84;5035423;28;20053;-81
2022/08/17 06:24:50;;;;;;;15.50;10.40;;;;;;;26.69;41.77;100271.97;5035019;28;20437;-79
2022/08/17 06:27:36;;;;;;;14.48;10.70;;;;;;;26.77;41.48;100282.25;5034033;28;20136;-79
2022/08/17 06:30:20;;;;;;;14.10;10.00;;;;;;;26.61;41.21;100284.97;5035252;28;20084;-79
2022/08/17 06:32:49;;;;;;;16.90;9.60;;;;;;;26.45;41.33;100294.75;5035077;28;20466;-77
2022/08/17 06:35:26;;;;;;;;;;;;;;;26.08;42.19;100286.09;5034944;28;20115;-79
2022/08/17 06:38:31;;;;;;;12.85;8.60;;;;;;;26.38;42.04;100290.72;5033358;28;19925;-80
2022/08/17 06:41:33;;;;;;;11.93;7.97;;;;;;;26.54;41.32;100284.41;4997691;28;20049;-83
2022/08/17 06:44:34;;;;;;;9.63;7.03;;;;;;;26.45;41.01;100286.72;5001067;28;20052;-78
2022/08/17 06:47:34;;;;;;;12.15;7.10;;;;;;;26.41;41.02;100272.63;5022628;28;20077;-79
2022/08/17 06:50:07;;;;;;;10.40;7.38;;;;;;;26.59;40.66;100276.16;5034412;28;20053;-79
2022/08/17 06:52:58;;;;;;;10.02;7.32;;;;;;;26.67;40.81;100270.34;5032445;28;20049;-79
2022/08/17 06:55:33;;;;;;;12.73;6.70;;;;;;;26.90;39.70;100263.66;5033877;28;20076;-78
2022/08/17 06:58:06;;;;;;;13.60;6.82;;;;;;;26.94;39.69;100249.13;5032946;28;20049;-77
2022/08/17 07:00:45;;;;;;;9.68;6.85;;;;;;;27.10;39.41;100263.38;5032523;28;20056;-79
2022/08/17 07:03:36;;;;;;;11.70;6.53;;;;;;;27.04;39.43;100238.72;5033607;28;20049;-81
2022/08/17 07:06:16;;;;;;;9.88;6.13;;;;;;;26.95;39.50;100214.19;5033594;28;20077;-79
2022/08/17 07:08:54;;;;;;;10.90;6.28;;;;;;;26.99;38.94;100220.22;5034494;28;20050;-81
2022/08/17 07:11:32;;;;;;;11.43;6.22;;;;;;;27.10;38.78;100217.78;5017185;28;20049;-79
2022/08/17 07:14:18;;;;;;;10.27;6.35;;;;;;;27.42;38.72;100251.69;5032421;28;20104;-78
2022/08/17 07:16:50;;;;;;;9.10;5.60;;;;;;;27.37;38.27;100220.63;5034269;28;20049;-78
2022/08/17 07:19:24;;;;;;;6.40;5.15;;;;;;;27.71;37.66;100249.91;5034554;28;20072;-78
2022/08/17 07:22:09;;;;;;;6.68;5.05;;;;;;;27.69;37.54;100251.81;5034430;28;20140;-82
2022/08/17 07:24:51;;;;;;;11.60;5.07;;;;;;;27.76;37.41;100245.97;5035198;28;20103;-87
2022/08/17 07:27:21;;;;;;;10.90;5.15;;;;;;;27.68;37.49;100232.16;5035285;28;20045;-84
2022/08/17 07:30:00;;;;;;;8.88;5.38;;;;;;;27.67;37.40;100200.06;5035372;28;20050;-80
2022/08/17 07:32:47;;;;;;;7.85;5.30;;;;;;;28.01;37.14;100244.47;5039469;28;20057;-77
2022/08/17 07:35:19;;;;;;;6.53;4.72;;;;;;;28.16;35.39;100240.81;5039264;28;20065;-79
2022/08/17 07:37:54;;;;;;;8.13;4.93;;;;;;;28.03;35.56;100239.88;5041112;28;20175;-78
2022/08/17 07:40:47;;;;;;;9.45;4.53;;;;;;;28.03;35.74;100230.94;5043012;28;20053;-80
2022/08/17 07:43:19;;;;;;;6.68;4.40;;;;;;;28.05;35.68;100229.00;5040432;28;20045;-79
2022/08/17 07:48:51;;;;;;;6.43;4.30;;;;;;;28.26;35.02;100233.00;5040063;28;20060;-79
2022/08/17 07:51:26;;;;;;;4.70;4.13;;;;;;;28.28;35.00;100238.28;5034347;28;20046;-80
2022/08/17 07:53:58;;;;;;;11.23;4.35;;;;;;;28.32;34.89;100203.06;5033748;28;20068;-79
2022/08/17 07:56:55;;;;;;;6.10;4.30;;;;;;;28.27;34.49;100218.63;5034628;28;20060;-79
2022/08/17 07:59:34;;;;;;;7.28;4.40;;;;;;;28.18;34.19;100232.66;5032986;28;20049;-79
2022/08/17 08:02:03;;;;;;;;;;;;;;;27.94;35.30;100227.00;5033737;28;20399;-77
2022/08/17 08:04:59;;;;;;;6.88;4.47;;;;;;;28.21;34.42;100231.59;5033854;28;19929;-78
2022/08/17 08:07:56;;;;;;;8.30;3.83;;;;;;;28.08;34.24;100227.00;5034015;28;20057;-79
2022/08/17 08:10:34;;;;;;;6.28;3.97;;;;;;;28.04;33.79;100222.78;5033025;28;20076;-79
2022/08/17 08:13:11;;;;;;;5.47;3.58;;;;;;;28.00;33.99;100212.34;5032652;28;20065;-80
2022/08/17 08:15:49;;;;;;;7.80;4.05;;;;;;;28.19;33.88;100229.00;5033771;28;20058;-82
2022/08/17 08:18:25;;;;;;;7.10;3.97;;;;;;;28.24;34.07;100215.28;5034115;28;20053;-82
2022/08/17 08:21:23;;;;;;;4.82;3.80;;;;;;;28.54;33.56;100215.13;5032482;28;20420;-78
2022/08/17 08:23:53;;;;;;;7.50;4.00;;;;;;;28.69;33.14;100215.94;5033633;28;20061;-80
2022/08/17 08:26:49;;;;;;;7.55;3.90;;;;;;;28.57;33.10;100217.63;5030848;28;20061;-78
2022/08/17 08:29:27;;;;;;;6.38;4.18;;;;;;;28.65;33.36;100209.91;5014069;28;20050;-78
2022/08/17 08:32:20;;;;;;;6.57;3.95;;;;;;;28.90;32.89;100219.03;5013960;28;20141;-79
2022/08/17 08:34:56;;;;;;;8.80;3.78;;;;;;;28.74;32.47;100221.88;4994673;28;20101;-77
2022/08/17 08:37:42;;;;;;;7.32;3.83;;;;;;;28.83;32.20;100202.44;5020688;28;20061;-78
2022/08/17 08:40:10;;;;;;;4.50;3.65;;;;;;;28.86;32.09;100187.94;5012922;28;20425;-79
2022/08/17 08:43:12;;;;;;;8.02;3.88;;;;;;;29.06;31.80;100208.06;5013226;28;20054;-80
2022/08/17 08:45:55;;;;;;;6.00;4.10;;;;;;;29.18;31.86;100215.34;5017836;28;20076;-80
2022/08/17 08:48:28;;;;;;;6.90;4.00;;;;;;;28.97;31.29;100228.38;5014656;28;20104;-79
2022/08/17 08:51:34;;;;;;;9.13;4.28;;;;;;;28.69;31.76;100202.50;5013761;28;20060;-80
2022/08/17 08:54:27;;;;;;;11.80;3.63;;;;;;;28.63;32.61;100201.09;5013673;28;20046;-80
2022/08/17 08:57:16;;;;;;;6.25;3.83;;;;;;;28.78;32.00;100202.75;5016804;28;20104;-81
2022/08/17 09:00:19;;;;;;;8.48;3.88;;;;;;;28.94;31.90;100204.41;5018456;28;20148;-78
2022/08/17 09:02:55;;;;;;;8.02;3.60;;;;;;;29.00;31.50;100196.78;5015026;28;20057;-80
2022/08/17 09:05:31;;;;;;;6.15;3.75;;;;;;;28.94;31.82;100188.28;5015729;28;20420;-78
2022/08/17 09:08:16;;;;;;;10.52;4.15;;;;;;;29.11;31.47;100206.00;5013495;28;20050;-79
2022/08/17 09:10:43;;;;;;;6.45;4.00;;;;;;;28.91;31.67;100188.47;5013014;28;20135;-79
2022/08/17 09:13:30;;;;;;;9.93;4.18;;;;;;;28.91;31.45;100200.09;5013114;28;20160;-78
2022/08/17 09:16:10;;;;;;;7.35;3.83;;;;;;;28.83;31.97;100189.00;5012811;28;20534;-80
2022/08/17 09:18:50;;;;;;;6.15;3.50;;;;;;;28.85;31.70;100191.59;5013454;28;20050;-79
2022/08/17 09:21:53;;;;;;;8.10;3.45;;;;;;;29.10;31.40;100182.72;5013105;28;20045;-80
2022/08/17 09:25:02;;;;;;;6.95;4.07;;;;;;;29.32;31.14;100182.97;5011944;28;20058;-78
2022/08/17 09:27:46;;;;;;;8.82;3.83;;;;;;;29.56;30.98;100185.78;5012757;28;20050;-79
2022/08/17 09:30:14;;;;;;;10.80;3.90;;;;;;;29.49;30.04;100195.25;5011871;28;20140;-79
2022/08/17 09:32:45;;;;;;;5.97;3.80;;;;;;;29.39;30.07;100196.88;5012965;28;20537;-79
2022/08/17 09:35:35;;;;;;;6.03;3.65;;;;;;;29.39;30.35;100199.56;5013038;28;20089;-80
2022/08/17 09:38:39;;;;;;;6.47;3.53;;;;;;;29.26;30.19;100187.94;5012352;28;20421;-78
2022/08/17 09:41:19;;;;;;;7.80;4.13;;;;;;;29.20;30.57;100206.19;5003918;28;20058;-75
2022/08/17 09:44:15;;;;;;;8.57;4.30;;;;;;;29.11;30.52;100181.78;5011680;28;20064;-81
2022/08/17 09:46:54;;;;;;;5.20;3.92;;;;;;;29.23;30.45;100199.75;5012530;28;20414;-79
2022/08/17 09:49:33;;;;;;;5.53;4.20;;;;;;;29.28;30.23;100203.00;5012829;28;20141;-79
2022/08/17 09:52:15;;;;;;;4.47;4.00;;;;;;;29.31;30.74;100193.84;5012702;28;20139;-78
2022/08/17 09:54:44;;;;;;;6.82;3.78;;;;;;;29.36;30.25;100189.00;5013545;28;20058;-79
2022/08/17 09:57:23;;;;;;;9.95;4.65;;;;;;;29.47;30.43;100181.03;5013946;28;20057;-78
2022/08/17 10:00:11;;;;;;;5.95;4.10;;;;;;;29.34;30.15;100196.31;5011727;28;20054;-79
2022/08/17 10:02:53;;;;;;;7.57;4.25;;;;;;;29.26;30.15;100193.31;5012683;28;20057;-77
2022/08/17 10:05:45;;;;;;;8.35;4.30;;;;;;;29.42;30.26;100180.50;5012777;28;20439;-79
2022/08/17 10:08:14;;;;;;;5.63;4.35;;;;;;;29.60;29.49;100189.13;5013031;28;20083;-79
2022/08/17 10:11:06;;;;;;;8.77;4.38;;;;;;;29.63;29.99;100183.50;5012361;28;20053;-77
2022/08/17 10:13:41;;;;;;;9.02;4.50;;;;;;;29.64;29.94;100182.50;5015522;28;20088;-78
2022/08/17 10:16:25;;;;;;;8.63;4.60;;;;;;;29.65;29.76;100168.09;5016296;28;20081;-80
2022/08/17 10:19:22;;;;;;;9.07;4.80;;;;;;;29.74;29.96;100172.00;5016153;28;20062;-79
2022/08/17 10:27:58;;;;;;;11.63;5.20;;;;;;;29.79;29.43;100169.81;5014500;28;20049;-78
2022/08/17 10:30:30;;;;;;;9.30;4.85;;;;;;;29.76;29.47;100162.84;5015941;28;20054;-78
2022/08/17 10:33:20;;;;;;;7.13;5.50;;;;;;;29.73;29.52;100156.84;5023602;28;20076;-81
2022/08/17 10:36:30;;;;;;;10.18;5.38;;;;;;;29.87;29.54;100162.06;5033757;28;20057;-80
2022/08/17 10:39:10;;;;;;;8.20;5.47;;;;;;;29.99;29.45;100165.72;5018544;28;20084;-80
2022/08/17 10:41:42;;;;;;;;;;;;;;;29.83;29.70;100165.09;5036318;28;20061;-79
2022/08/17 10:44:23;;;;;;;10.73;6.13;;;;;;;29.84;29.76;100165.00;5040189;28;19932;-80
2022/08/17 10:47:15;;;;;;;8.43;5.43;;;;;;;29.76;29.72;100159.28;5035298;28;20373;-79
2022/08/17 10:49:54;;;;;;;8.07;5.03;;;;;;;29.69;29.73;100128.38;5035892;28;20045;-79
2022/08/17 10:52:21;;;;;;;7.22;4.82;;;;;;;29.85;29.81;100160.47;5034312;28;20085;-78
2022/08/17 10:54:55;;;;;;;;;;;;;;;29.58;30.17;100156.91;5035566;28;20115;-79
2022/08/17 10:57:40;;;;;;;10.20;6.75;;;;;;;29.59;29.83;100173.91;5035389;28;19932;-82
2022/08/17 11:00:33;;;;;;;9.65;7.47;;;;;;;29.51;29.75;100173.59;5033291;28;20728;-80
2022/08/17 11:03:06;;;;;;;8.82;6.85;;;;;;;29.44;29.63;100135.50;5035081;28;20505;-77
2022/08/17 11:05:52;;;;;;;7.97;5.40;;;;;;;29.59;29.59;100157.78;5035359;28;20060;-78
2022/08/17 11:08:32;;;;;;;10.82;6.07;;;;;;;29.64;29.99;100158.28;5035283;28;20080;-81
2022/08/17 11:11:18;;;;;;;9.63;7.78;;;;;;;29.72;29.32;100165.88;5035055;28;20575;-79
2022/08/17 11:13:48;;;;;;;8.65;6.18;;;;;;;29.59;29.36;100165.84;5035396;28;20529;-79
2022/08/17 11:16:46;;;;;;;10.32;6.05;;;;;;;29.45;29.48;100158.78;5034983;28;20064;-79
2022/08/17 11:19:40;;;;;;;7.68;5.78;;;;;;;29.40;29.59;100161.78;5034852;28;20143;-79
2022/08/17 11:22:28;;;;;;;6.68;5.75;;;;;;;29.49;29.44;100157.59;5034770;28;20053;-80
2022/08/17 11:25:30;;;;;;;6.00;5.40;;;;;;;29.65;29.83;100151.09;5034062;28;20045;-79
2022/08/17 11:28:08;;;;;;;8.05;5.50;;;;;;;29.55;29.32;100132.06;5034485;28;20053;-79
2022/08/17 11:30:50;;;;;;;9.55;5.43;;;;;;;29.58;29.69;100130.00;5033714;28;20520;-80
2022/08/17 11:33:35;;;;;;;7.35;4.80;;;;;;;29.71;29.24;100130.03;5034976;28;20060;-78
2022/08/17 11:36:37;;;;;;;15.63;6.95;;;;;;;29.59;28.29;100138.94;5034402;28;20053;-78
2022/08/17 11:39:04;;;;;;;7.93;6.03;;;;;;;29.56;28.52;100147.25;5033759;28;20516;-79
2022/08/17 11:41:34;;;;;;;10.30;7.63;;;;;;;29.57;28.49;100144.41;5033438;28;20489;-80
2022/08/17 11:44:27;;;;;;;11.55;7.63;;;;;;;29.49;28.14;100136.06;5030795;28;20652;-79
2022/08/17 11:54:17;;;;;;;7.63;6.40;;;;;;;29.38;28.13;100123.38;5011909;28;20145;-78
2022/08/17 11:57:28;;;;;;;11.85;7.60;;;;;;;29.49;27.99;100122.59;5032594;28;20060;-78
2022/08/17 12:00:27;;;;;;;11.15;7.13;;;;;;;29.67;27.64;100124.94;5029110;28;20107;-80
2022/08/17 12:03:23;;;;;;;11.07;8.85;;;;;;;29.69;27.48;100110.44;5033195;28;20045;-78
2022/08/17 12:06:05;;;;;;;9.45;7.63;;;;;;;29.70;27.59;100097.81;5014437;28;20104;-78
2022/08/17 12:08:42;;;;;;;9.60;7.35;;;;;;;29.78;27.37;100108.91;5033152;28;20073;-78
2022/08/17 12:11:23;;;;;;;6.82;6.13;;;;;;;29.71;27.45;100118.41;5033241;28;20087;-77
2022/08/17 12:14:16;;;;;;;6.80;5.75;;;;;;;29.48;27.77;100095.78;5032772;28;20053;-79
2022/08/17 12:17:04;;;;;;;8.30;5.60;;;;;;;29.40;28.00;100099.03;5032665;28;20462;-78
2022/08/17 12:19:33;;;;;;;8.88;5.80;;;;;;;29.40;28.07;100102.59;5032367;28;20056;-79
2022/08/17 12:22:22;;;;;;;6.43;5.68;;;;;;;29.34;27.87;100092.28;5031323;28;20464;-79
2022/08/17 12:24:56;;;;;;;;;;;;;;;29.28;28.16;100091.84;5033100;28;20398;-80
2022/08/17 12:27:32;;;;;;;11.00;7.00;;;;;;;29.48;27.74;100098.50;5014788;28;20309;-79
2022/08/17 12:30:20;;;;;;;11.35;6.88;;;;;;;29.51;28.01;100112.59;5031398;28;20060;-77
2022/08/17 12:32:48;;;;;;;8.90;6.00;;;;;;;29.61;27.61;100102.00;5032349;28;20501;-80
2022/08/17 12:35:33;;;;;;;8.98;5.72;;;;;;;29.64;28.06;100104.47;5032885;28;20048;-77
2022/08/17 12:38:03;;;;;;;8.93;5.35;;;;;;;29.58;27.60;100095.03;5014007;28;20049;-80